Wichita Falls, Texas
Current Conditions -  °F | °C
As of 2:15 AM on Thursday 27 Nov 2014 (Local Time) from KCWC Reporting Station
Clear Clear  
Wind Chill: 38°   Ceiling: Unl
Heat Index: 38°   Visibility: 10mi
Dew Point: 26°   Wind: 3mph
Humidity: 64%   Direction: 20°NNE
Pressure: 30.48"   Gusts: NA
Location:  33.91°N, 98.5°W
Report Text: KCWC 270815Z AUTO 02003KT 10SM CLR 03/M03 A3048 RMK AO2 T00321031
Loading
Personal Weather Stations






























Interactive Weather Map New forecast layout! Learn more

10-Day Weather Forecast

Advertisements
Track Severe Weather on mobile